Newfield, Maine
Current Conditions -  °F | °C
As of 2:55 PM on Thursday 30 Oct 2014 (Local Time) from KSFM Reporting Station
Few Clouds Few Clouds  
Wind Chill: 55°   Ceiling: Unl
Heat Index: 55°   Visibility: 10mi
Dew Point: 36°   Wind: 8mph
Humidity: 47%   Direction: 290°WNW
Pressure: 29.9"   Gusts: NA
Location:  43.65°N, 70.85°W
Report Text: KSFM 301855Z AUTO 29007KT 10SM FEW044 13/02 A2990 RMK AO1
Loading
Personal Weather Stations






























Interactive Weather Map
Tropical Storm Tracking
New forecast layout! Learn more

10-Day Weather Forecast

Advertisements
Track Severe Weather on mobile